sensor_id;sensor_type;location;lat;lon;timestamp;pressure;altitude;pressure_sealevel;temperature
30001;BMP280;16845;48.670;9.000;2023-07-31T00:01:29;95593.81;;;15.62
30001;BMP280;16845;48.670;9.000;2023-07-31T00:03:56;95598.44;;;15.35
30001;BMP280;16845;48.670;9.000;2023-07-31T00:06:22;95601.88;;;15.34
30001;BMP280;16845;48.670;9.000;2023-07-31T00:08:49;95607.19;;;15.28
30001;BMP280;16845;48.670;9.000;2023-07-31T00:11:15;95603.28;;;15.21
30001;BMP280;16845;48.670;9.000;2023-07-31T00:13:42;95601.44;;;15.25
30001;BMP280;16845;48.670;9.000;2023-07-31T00:16:08;95618.94;;;15.11
30001;BMP280;16845;48.670;9.000;2023-07-31T00:18:36;95621.00;;;15.03
30001;BMP280;16845;48.670;9.000;2023-07-31T00:21:03;95625.28;;;15.01
30001;BMP280;16845;48.670;9.000;2023-07-31T00:23:29;95626.28;;;15.15
30001;BMP280;16845;48.670;9.000;2023-07-31T00:25:56;95623.16;;;15.10
30001;BMP280;16845;48.670;9.000;2023-07-31T00:28:22;95615.00;;;15.05
30001;BMP280;16845;48.670;9.000;2023-07-31T00:30:49;95613.66;;;14.97
30001;BMP280;16845;48.670;9.000;2023-07-31T00:33:15;95617.28;;;15.10
30001;BMP280;16845;48.670;9.000;2023-07-31T00:35:43;95616.81;;;15.02
30001;BMP280;16845;48.670;9.000;2023-07-31T00:38:10;95616.97;;;14.99
30001;BMP280;16845;48.670;9.000;2023-07-31T00:40:36;95612.53;;;15.04
30001;BMP280;16845;48.670;9.000;2023-07-31T00:43:03;95612.13;;;14.94
30001;BMP280;16845;48.670;9.000;2023-07-31T00:45:30;95614.22;;;14.85
30001;BMP280;16845;48.670;9.000;2023-07-31T00:47:58;95614.28;;;14.83
30001;BMP280;16845;48.670;9.000;2023-07-31T00:50:25;95608.56;;;14.80
30001;BMP280;16845;48.670;9.000;2023-07-31T00:52:53;95601.13;;;14.77
30001;BMP280;16845;48.670;9.000;2023-07-31T00:55:20;95601.72;;;14.82
30001;BMP280;16845;48.670;9.000;2023-07-31T00:57:46;95601.56;;;14.85
30001;BMP280;16845;48.670;9.000;2023-07-31T01:00:13;95607.31;;;14.88
30001;BMP280;16845;48.670;9.000;2023-07-31T01:02:40;95609.03;;;14.88
30001;BMP280;16845;48.670;9.000;2023-07-31T01:05:07;95599.19;;;14.82
30001;BMP280;16845;48.670;9.000;2023-07-31T01:07:38;95601.13;;;14.77
30001;BMP280;16845;48.670;9.000;2023-07-31T01:10:11;95590.38;;;14.72
30001;BMP280;16845;48.670;9.000;2023-07-31T01:12:43;95601.00;;;14.60
30001;BMP280;16845;48.670;9.000;2023-07-31T01:15:11;95598.97;;;14.68
30001;BMP280;16845;48.670;9.000;2023-07-31T01:17:38;95595.44;;;14.72
30001;BMP280;16845;48.670;9.000;2023-07-31T01:20:08;95591.22;;;14.72
30001;BMP280;16845;48.670;9.000;2023-07-31T01:25:54;95583.09;;;14.66
30001;BMP280;16845;48.670;9.000;2023-07-31T01:28:25;95591.06;;;14.57
30001;BMP280;16845;48.670;9.000;2023-07-31T01:30:55;95583.47;;;14.57
30001;BMP280;16845;48.670;9.000;2023-07-31T01:33:23;95586.41;;;14.48
30001;BMP280;16845;48.670;9.000;2023-07-31T01:35:50;95574.13;;;14.59
30001;BMP280;16845;48.670;9.000;2023-07-31T01:38:20;95582.78;;;14.53
30001;BMP280;16845;48.670;9.000;2023-07-31T01:40:52;95584.91;;;14.44
30001;BMP280;16845;48.670;9.000;2023-07-31T01:43:19;95587.78;;;14.55
30001;BMP280;16845;48.670;9.000;2023-07-31T01:45:45;95582.78;;;14.53
30001;BMP280;16845;48.670;9.000;2023-07-31T01:48:12;95570.34;;;14.49
30001;BMP280;16845;48.670;9.000;2023-07-31T01:50:38;95579.31;;;14.56
30001;BMP280;16845;48.670;9.000;2023-07-31T01:53:05;95577.25;;;14.45
30001;BMP280;16845;48.670;9.000;2023-07-31T01:55:31;95580.13;;;14.56
30001;BMP280;16845;48.670;9.000;2023-07-31T01:57:59;95570.56;;;14.63
30001;BMP280;16845;48.670;9.000;2023-07-31T02:00:26;95573.72;;;14.68
30001;BMP280;16845;48.670;9.000;2023-07-31T02:02:52;95566.16;;;14.68
30001;BMP280;16845;48.670;9.000;2023-07-31T02:05:19;95563.09;;;14.61
30001;BMP280;16845;48.670;9.000;2023-07-31T02:07:45;95561.84;;;14.70
30001;BMP280;16845;48.670;9.000;2023-07-31T02:10:12;95558.28;;;14.55
30001;BMP280;16845;48.670;9.000;2023-07-31T02:12:39;95547.31;;;14.56
30001;BMP280;16845;48.670;9.000;2023-07-31T02:15:07;95549.03;;;14.56
30001;BMP280;16845;48.670;9.000;2023-07-31T02:17:34;95543.09;;;14.57
30001;BMP280;16845;48.670;9.000;2023-07-31T02:20:00;95553.00;;;14.61
30001;BMP280;16845;48.670;9.000;2023-07-31T02:22:27;95544.09;;;14.53
30001;BMP280;16845;48.670;9.000;2023-07-31T02:24:53;95541.84;;;14.65
30001;BMP280;16845;48.670;9.000;2023-07-31T02:27:20;95537.94;;;14.58
30001;BMP280;16845;48.670;9.000;2023-07-31T02:29:46;95538.78;;;14.59
30001;BMP280;16845;48.670;9.000;2023-07-31T02:32:14;95540.28;;;14.63
30001;BMP280;16845;48.670;9.000;2023-07-31T02:34:41;95538.03;;;14.57
30001;BMP280;16845;48.670;9.000;2023-07-31T02:37:08;95530.16;;;14.44
30001;BMP280;16845;48.670;9.000;2023-07-31T02:39:34;95530.56;;;14.35
30001;BMP280;16845;48.670;9.000;2023-07-31T02:42:01;95538.81;;;14.39
30001;BMP280;16845;48.670;9.000;2023-07-31T02:44:27;95527.84;;;14.40
30001;BMP280;16845;48.670;9.000;2023-07-31T02:46:54;95532.16;;;14.56
30001;BMP280;16845;48.670;9.000;2023-07-31T02:49:22;95532.34;;;14.52
30001;BMP280;16845;48.670;9.000;2023-07-31T02:51:48;95529.47;;;14.41
30001;BMP280;16845;48.670;9.000;2023-07-31T02:54:15;95520.28;;;14.40
30001;BMP280;16845;48.670;9.000;2023-07-31T02:56:41;95522.25;;;14.33
30001;BMP280;16845;48.670;9.000;2023-07-31T02:59:08;95519.66;;;14.35
30001;BMP280;16845;48.670;9.000;2023-07-31T03:01:35;95521.72;;;14.45
30001;BMP280;16845;48.670;9.000;2023-07-31T03:04:01;95518.63;;;14.39
30001;BMP280;16845;48.670;9.000;2023-07-31T03:06:29;95515.91;;;14.43
30001;BMP280;16845;48.670;9.000;2023-07-31T03:08:55;95508.84;;;14.51
30001;BMP280;16845;48.670;9.000;2023-07-31T03:11:22;95513.94;;;14.50
30001;BMP280;16845;48.670;9.000;2023-07-31T03:13:48;95507.53;;;14.43
30001;BMP280;16845;48.670;9.000;2023-07-31T03:16:15;95514.47;;;14.56
30001;BMP280;16845;48.670;9.000;2023-07-31T03:18:41;95524.53;;;14.58
30001;BMP280;16845;48.670;9.000;2023-07-31T03:21:08;95522.00;;;14.58
30001;BMP280;16845;48.670;9.000;2023-07-31T03:23:36;95520.50;;;14.54
30001;BMP280;16845;48.670;9.000;2023-07-31T03:26:07;95512.34;;;14.47
30001;BMP280;16845;48.670;9.000;2023-07-31T03:28:34;95518.78;;;14.54
30001;BMP280;16845;48.670;9.000;2023-07-31T03:31:00;95517.56;;;14.63
30001;BMP280;16845;48.670;9.000;2023-07-31T03:33:27;95507.06;;;14.53
30001;BMP280;16845;48.670;9.000;2023-07-31T03:35:54;95519.63;;;14.55
30001;BMP280;16845;48.670;9.000;2023-07-31T03:38:20;95517.22;;;14.52
30001;BMP280;16845;48.670;9.000;2023-07-31T03:40:48;95521.25;;;14.56
30001;BMP280;16845;48.670;9.000;2023-07-31T03:43:15;95515.38;;;14.55
30001;BMP280;16845;48.670;9.000;2023-07-31T03:45:42;95519.94;;;14.47
30001;BMP280;16845;48.670;9.000;2023-07-31T03:48:08;95516.81;;;14.61
30001;BMP280;16845;48.670;9.000;2023-07-31T03:50:35;95513.47;;;14.79
30001;BMP280;16845;48.670;9.000;2023-07-31T03:53:01;95519.28;;;14.62
30001;BMP280;16845;48.670;9.000;2023-07-31T03:55:28;95518.03;;;14.71
30001;BMP280;16845;48.670;9.000;2023-07-31T03:57:56;95519.88;;;14.67
30001;BMP280;16845;48.670;9.000;2023-07-31T04:00:22;95509.66;;;14.89
30001;BMP280;16845;48.670;9.000;2023-07-31T04:02:49;95519.63;;;14.73
30001;BMP280;16845;48.670;9.000;2023-07-31T04:05:15;95514.63;;;14.72
30001;BMP280;16845;48.670;9.000;2023-07-31T04:07:42;95519.13;;;14.84
30001;BMP280;16845;48.670;9.000;2023-07-31T04:10:09;95509.44;;;14.93
30001;BMP280;16845;48.670;9.000;2023-07-31T04:12:38;95515.91;;;14.99
30001;BMP280;16845;48.670;9.000;2023-07-31T04:15:07;95514.41;;;14.95
30001;BMP280;16845;48.670;9.000;2023-07-31T04:17:34;95514.59;;;14.90
30001;BMP280;16845;48.670;9.000;2023-07-31T04:20:00;95507.56;;;14.97
30001;BMP280;16845;48.670;9.000;2023-07-31T04:22:27;95496.72;;;14.95
30001;BMP280;16845;48.670;9.000;2023-07-31T04:24:54;95500.13;;;14.94
30001;BMP280;16845;48.670;9.000;2023-07-31T04:27:20;95505.53;;;14.86
30001;BMP280;16845;48.670;9.000;2023-07-31T04:29:47;95504.63;;;15.06
30001;BMP280;16845;48.670;9.000;2023-07-31T04:32:14;95497.50;;;15.14
30001;BMP280;16845;48.670;9.000;2023-07-31T04:34:41;95510.19;;;15.31
30001;BMP280;16845;48.670;9.000;2023-07-31T04:37:07;95504.94;;;15.00
30001;BMP280;16845;48.670;9.000;2023-07-31T04:39:34;95510.63;;;15.03
30001;BMP280;16845;48.670;9.000;2023-07-31T04:42:00;95513.63;;;15.11
30001;BMP280;16845;48.670;9.000;2023-07-31T04:44:27;95510.16;;;15.14
30001;BMP280;16845;48.670;9.000;2023-07-31T04:46:53;95512.38;;;15.20
30001;BMP280;16845;48.670;9.000;2023-07-31T04:49:21;95507.41;;;15.18
30001;BMP280;16845;48.670;9.000;2023-07-31T04:51:48;95512.69;;;15.14
30001;BMP280;16845;48.670;9.000;2023-07-31T04:54:14;95509.09;;;15.18
30001;BMP280;16845;48.670;9.000;2023-07-31T04:56:41;95503.97;;;15.38
30001;BMP280;16845;48.670;9.000;2023-07-31T04:59:07;95503.63;;;15.27
30001;BMP280;16845;48.670;9.000;2023-07-31T05:01:34;95500.84;;;15.33
30001;BMP280;16845;48.670;9.000;2023-07-31T05:04:00;95503.75;;;15.42
30001;BMP280;16845;48.670;9.000;2023-07-31T05:06:28;95509.25;;;15.33
30001;BMP280;16845;48.670;9.000;2023-07-31T05:08:55;95498.91;;;15.38
30001;BMP280;16845;48.670;9.000;2023-07-31T05:11:21;95499.19;;;15.32
30001;BMP280;16845;48.670;9.000;2023-07-31T05:13:48;95501.66;;;15.33
30001;BMP280;16845;48.670;9.000;2023-07-31T05:16:14;95504.28;;;15.49
30001;BMP280;16845;48.670;9.000;2023-07-31T05:18:41;95497.28;;;15.54
30001;BMP280;16845;48.670;9.000;2023-07-31T05:21:07;95501.00;;;15.47
30001;BMP280;16845;48.670;9.000;2023-07-31T05:23:35;95501.00;;;15.47
30001;BMP280;16845;48.670;9.000;2023-07-31T05:26:03;95495.28;;;15.60
30001;BMP280;16845;48.670;9.000;2023-07-31T05:28:30;95497.16;;;15.57
30001;BMP280;16845;48.670;9.000;2023-07-31T05:30:59;95496.56;;;15.69
30001;BMP280;16845;48.670;9.000;2023-07-31T05:33:25;95499.97;;;15.68
30001;BMP280;16845;48.670;9.000;2023-07-31T05:35:52;95510.47;;;15.77
30001;BMP280;16845;48.670;9.000;2023-07-31T05:38:18;95512.03;;;15.80
30001;BMP280;16845;48.670;9.000;2023-07-31T05:40:46;95506.66;;;16.03
30001;BMP280;16845;48.670;9.000;2023-07-31T05:43:13;95500.53;;;16.07
30001;BMP280;16845;48.670;9.000;2023-07-31T05:45:39;95498.91;;;16.38
30001;BMP280;16845;48.670;9.000;2023-07-31T05:48:06;95495.84;;;16.49
30001;BMP280;16845;48.670;9.000;2023-07-31T05:50:32;95504.34;;;16.48
30001;BMP280;16845;48.670;9.000;2023-07-31T05:52:59;95492.75;;;16.74
30001;BMP280;16845;48.670;9.000;2023-07-31T05:55:26;95488.34;;;16.63
30001;BMP280;16845;48.670;9.000;2023-07-31T05:57:53;95483.59;;;16.72
30001;BMP280;16845;48.670;9.000;2023-07-31T06:00:20;95484.25;;;16.75
30001;BMP280;16845;48.670;9.000;2023-07-31T06:02:47;95485.56;;;16.82
30001;BMP280;16845;48.670;9.000;2023-07-31T06:05:13;95489.97;;;16.63
30001;BMP280;16845;48.670;9.000;2023-07-31T06:07:40;95483.94;;;16.66
30001;BMP280;16845;48.670;9.000;2023-07-31T06:10:07;95488.97;;;16.51
30001;BMP280;16845;48.670;9.000;2023-07-31T06:12:34;95483.28;;;16.78
30001;BMP280;16845;48.670;9.000;2023-07-31T06:15:03;95489.16;;;16.94
30001;BMP280;16845;48.670;9.000;2023-07-31T06:17:29;95490.97;;;16.76
30001;BMP280;16845;48.670;9.000;2023-07-31T06:19:56;95485.31;;;17.02
30001;BMP280;16845;48.670;9.000;2023-07-31T06:22:23;95478.53;;;16.87
30001;BMP280;16845;48.670;9.000;2023-07-31T06:24:49;95478.53;;;17.03
30001;BMP280;16845;48.670;9.000;2023-07-31T06:27:16;95490.13;;;17.38
30001;BMP280;16845;48.670;9.000;2023-07-31T06:29:42;95492.31;;;17.28
30001;BMP280;16845;48.670;9.000;2023-07-31T06:32:10;95497.28;;;17.30
30001;BMP280;16845;48.670;9.000;2023-07-31T06:34:37;95483.22;;;17.55
30001;BMP280;16845;48.670;9.000;2023-07-31T06:37:03;95485.00;;;17.53
30001;BMP280;16845;48.670;9.000;2023-07-31T06:39:30;95482.91;;;17.89
30001;BMP280;16845;48.670;9.000;2023-07-31T06:41:56;95487.59;;;17.81
30001;BMP280;16845;48.670;9.000;2023-07-31T06:44:23;95489.28;;;17.96
30001;BMP280;16845;48.670;9.000;2023-07-31T06:46:49;95487.25;;;17.73
30001;BMP280;16845;48.670;9.000;2023-07-31T06:49:17;95477.53;;;18.23
30001;BMP280;16845;48.670;9.000;2023-07-31T06:51:44;95480.25;;;18.20
30001;BMP280;16845;48.670;9.000;2023-07-31T06:54:10;95490.41;;;18.06
30001;BMP280;16845;48.670;9.000;2023-07-31T06:56:37;95489.84;;;18.15
30001;BMP280;16845;48.670;9.000;2023-07-31T06:59:06;95487.94;;;18.05
30001;BMP280;16845;48.670;9.000;2023-07-31T07:01:33;95480.03;;;17.95
30001;BMP280;16845;48.670;9.000;2023-07-31T07:03:59;95488.00;;;18.03
30001;BMP280;16845;48.670;9.000;2023-07-31T07:06:27;95485.88;;;18.39
30001;BMP280;16845;48.670;9.000;2023-07-31T07:08:54;95477.16;;;18.85
30001;BMP280;16845;48.670;9.000;2023-07-31T07:11:20;95472.34;;;19.47
30001;BMP280;16845;48.670;9.000;2023-07-31T07:13:47;95477.34;;;20.13
30001;BMP280;16845;48.670;9.000;2023-07-31T07:16:13;95476.22;;;20.04
30001;BMP280;16845;48.670;9.000;2023-07-31T07:18:40;95473.28;;;20.23
30001;BMP280;16845;48.670;9.000;2023-07-31T07:21:19;95469.31;;;19.55
30001;BMP280;16845;48.670;9.000;2023-07-31T07:23:47;95464.47;;;19.77
30001;BMP280;16845;48.670;9.000;2023-07-31T07:26:13;95459.28;;;19.39
30001;BMP280;16845;48.670;9.000;2023-07-31T07:28:40;95454.09;;;19.14
30001;BMP280;16845;48.670;9.000;2023-07-31T07:31:07;95457.97;;;18.94
30001;BMP280;16845;48.670;9.000;2023-07-31T07:33:33;95454.31;;;18.98
30001;BMP280;16845;48.670;9.000;2023-07-31T07:36:00;95449.94;;;18.59
30001;BMP280;16845;48.670;9.000;2023-07-31T07:38:27;95450.69;;;18.47
30001;BMP280;16845;48.670;9.000;2023-07-31T07:40:55;95461.50;;;18.91
30001;BMP280;16845;48.670;9.000;2023-07-31T07:43:21;95455.63;;;18.91
30001;BMP280;16845;48.670;9.000;2023-07-31T07:45:48;95465.75;;;19.05
30001;BMP280;16845;48.670;9.000;2023-07-31T07:48:14;95454.31;;;19.50
30001;BMP280;16845;48.670;9.000;2023-07-31T07:50:41;95452.44;;;19.79
30001;BMP280;16845;48.670;9.000;2023-07-31T07:53:07;95455.63;;;20.20
30001;BMP280;16845;48.670;9.000;2023-07-31T07:55:35;95447.25;;;20.55
30001;BMP280;16845;48.670;9.000;2023-07-31T07:58:03;95453.16;;;21.04
30001;BMP280;16845;48.670;9.000;2023-07-31T08:00:29;95448.06;;;21.85
30001;BMP280;16845;48.670;9.000;2023-07-31T08:02:56;95433.97;;;22.58
30001;BMP280;16845;48.670;9.000;2023-07-31T08:05:23;95434.91;;;22.46
30001;BMP280;16845;48.670;9.000;2023-07-31T08:07:49;95439.06;;;22.36
30001;BMP280;16845;48.670;9.000;2023-07-31T08:10:16;95429.09;;;22.66
30001;BMP280;16845;48.670;9.000;2023-07-31T08:12:42;95426.03;;;23.05
30001;BMP280;16845;48.670;9.000;2023-07-31T08:15:10;95428.88;;;23.34
30001;BMP280;16845;48.670;9.000;2023-07-31T08:17:37;95430.28;;;23.79
30001;BMP280;16845;48.670;9.000;2023-07-31T08:20:04;95423.78;;;23.54
30001;BMP280;16845;48.670;9.000;2023-07-31T08:22:31;95420.34;;;23.96
30001;BMP280;16845;48.670;9.000;2023-07-31T08:24:57;95427.53;;;24.62
30001;BMP280;16845;48.670;9.000;2023-07-31T08:27:24;95429.84;;;24.35
30001;BMP280;16845;48.670;9.000;2023-07-31T08:29:51;95414.38;;;25.44
30001;BMP280;16845;48.670;9.000;2023-07-31T08:32:19;95412.38;;;24.29
30001;BMP280;16845;48.670;9.000;2023-07-31T08:34:46;95430.56;;;24.17
30001;BMP280;16845;48.670;9.000;2023-07-31T08:37:12;95420.78;;;24.11
30001;BMP280;16845;48.670;9.000;2023-07-31T08:39:39;95405.38;;;23.81
30001;BMP280;16845;48.670;9.000;2023-07-31T08:42:07;95403.72;;;22.96
30001;BMP280;16845;48.670;9.000;2023-07-31T08:44:34;95408.72;;;21.77
30001;BMP280;16845;48.670;9.000;2023-07-31T08:47:01;95408.28;;;21.02
30001;BMP280;16845;48.670;9.000;2023-07-31T08:49:30;95412.75;;;21.45
30001;BMP280;16845;48.670;9.000;2023-07-31T08:51:57;95411.19;;;20.49
30001;BMP280;16845;48.670;9.000;2023-07-31T08:54:24;95412.91;;;19.86
30001;BMP280;16845;48.670;9.000;2023-07-31T08:56:52;95422.09;;;20.01
30001;BMP280;16845;48.670;9.000;2023-07-31T08:59:20;95423.09;;;20.48
30001;BMP280;16845;48.670;9.000;2023-07-31T09:01:50;95415.03;;;20.54
30001;BMP280;16845;48.670;9.000;2023-07-31T09:04:19;95413.44;;;20.77
30001;BMP280;16845;48.670;9.000;2023-07-31T09:06:48;95404.22;;;21.34
30001;BMP280;16845;48.670;9.000;2023-07-31T09:09:14;95375.41;;;22.00
30001;BMP280;16845;48.670;9.000;2023-07-31T09:11:41;95385.16;;;22.83
30001;BMP280;16845;48.670;9.000;2023-07-31T09:14:08;95378.28;;;25.45
30001;BMP280;16845;48.670;9.000;2023-07-31T09:16:35;95354.97;;;25.94
30001;BMP280;16845;48.670;9.000;2023-07-31T09:19:01;95368.69;;;25.38
30001;BMP280;16845;48.670;9.000;2023-07-31T09:21:28;95380.31;;;24.05
30001;BMP280;16845;48.670;9.000;2023-07-31T09:23:56;95372.03;;;23.92
30001;BMP280;16845;48.670;9.000;2023-07-31T09:26:30;95383.78;;;22.46
30001;BMP280;16845;48.670;9.000;2023-07-31T09:28:57;95388.09;;;22.24
30001;BMP280;16845;48.670;9.000;2023-07-31T09:31:32;95390.47;;;21.47
30001;BMP280;16845;48.670;9.000;2023-07-31T09:33:59;95384.00;;;21.43
30001;BMP280;16845;48.670;9.000;2023-07-31T09:36:29;95392.53;;;21.31
30001;BMP280;16845;48.670;9.000;2023-07-31T09:39:01;95389.72;;;21.58
30001;BMP280;16845;48.670;9.000;2023-07-31T09:41:28;95380.50;;;23.09
30001;BMP280;16845;48.670;9.000;2023-07-31T09:43:54;95365.56;;;23.56
30001;BMP280;16845;48.670;9.000;2023-07-31T09:46:21;95352.88;;;23.96
30001;BMP280;16845;48.670;9.000;2023-07-31T09:48:48;95355.13;;;25.17
30001;BMP280;16845;48.670;9.000;2023-07-31T09:51:14;95340.66;;;24.38
30001;BMP280;16845;48.670;9.000;2023-07-31T09:53:40;95345.78;;;23.38
30001;BMP280;16845;48.670;9.000;2023-07-31T09:56:08;95352.28;;;24.13
30001;BMP280;16845;48.670;9.000;2023-07-31T09:58:35;95329.19;;;23.83
30001;BMP280;16845;48.670;9.000;2023-07-31T10:01:02;95342.66;;;24.26
30001;BMP280;16845;48.670;9.000;2023-07-31T10:03:29;95346.88;;;24.45
30001;BMP280;16845;48.670;9.000;2023-07-31T10:05:57;95327.78;;;24.29
30001;BMP280;16845;48.670;9.000;2023-07-31T10:08:27;95324.06;;;26.13
30001;BMP280;16845;48.670;9.000;2023-07-31T10:10:58;95306.94;;;27.80
30001;BMP280;16845;48.670;9.000;2023-07-31T10:13:27;95309.56;;;26.49
30001;BMP280;16845;48.670;9.000;2023-07-31T10:15:54;95304.22;;;27.21
30001;BMP280;16845;48.670;9.000;2023-07-31T10:18:25;95314.16;;;26.55
30001;BMP280;16845;48.670;9.000;2023-07-31T10:20:53;95300.69;;;26.34
30001;BMP280;16845;48.670;9.000;2023-07-31T10:23:21;95307.44;;;27.84
30001;BMP280;16845;48.670;9.000;2023-07-31T10:25:48;95307.72;;;28.81
30001;BMP280;16845;48.670;9.000;2023-07-31T10:28:16;95300.03;;;30.63
30001;BMP280;16845;48.670;9.000;2023-07-31T10:30:44;95291.94;;;31.42
30001;BMP280;16845;48.670;9.000;2023-07-31T10:33:11;95297.47;;;31.39
30001;BMP280;16845;48.670;9.000;2023-07-31T10:35:37;95313.78;;;29.06
30001;BMP280;16845;48.670;9.000;2023-07-31T10:38:11;95297.88;;;30.75
30001;BMP280;16845;48.670;9.000;2023-07-31T10:40:38;95305.63;;;32.24
30001;BMP280;16845;48.670;9.000;2023-07-31T10:43:05;95290.91;;;30.37
30001;BMP280;16845;48.670;9.000;2023-07-31T10:45:33;95298.78;;;29.09
30001;BMP280;16845;48.670;9.000;2023-07-31T10:48:03;95292.63;;;29.98
30001;BMP280;16845;48.670;9.000;2023-07-31T10:50:31;95292.38;;;31.68
30001;BMP280;16845;48.670;9.000;2023-07-31T10:52:58;95293.66;;;31.72
30001;BMP280;16845;48.670;9.000;2023-07-31T10:55:27;95274.91;;;32.56
30001;BMP280;16845;48.670;9.000;2023-07-31T10:57:55;95279.47;;;32.83
30001;BMP280;16845;48.670;9.000;2023-07-31T11:00:25;95270.34;;;30.74
30001;BMP280;16845;48.670;9.000;2023-07-31T11:03:00;95291.84;;;29.34
30001;BMP280;16845;48.670;9.000;2023-07-31T11:05:51;95281.34;;;27.18
30001;BMP280;16845;48.670;9.000;2023-07-31T11:08:19;95287.16;;;26.32
30001;BMP280;16845;48.670;9.000;2023-07-31T11:10:47;95296.41;;;25.33
30001;BMP280;16845;48.670;9.000;2023-07-31T11:13:14;95302.22;;;23.99
30001;BMP280;16845;48.670;9.000;2023-07-31T11:15:41;95299.44;;;23.20
30001;BMP280;16845;48.670;9.000;2023-07-31T11:18:09;95307.06;;;23.31
30001;BMP280;16845;48.670;9.000;2023-07-31T11:20:37;95299.38;;;23.31
30001;BMP280;16845;48.670;9.000;2023-07-31T11:23:06;95302.69;;;22.91
30001;BMP280;16845;48.670;9.000;2023-07-31T11:25:33;95296.56;;;22.82
30001;BMP280;16845;48.670;9.000;2023-07-31T11:28:03;95296.69;;;22.27
30001;BMP280;16845;48.670;9.000;2023-07-31T11:30:30;95298.09;;;21.98
30001;BMP280;16845;48.670;9.000;2023-07-31T11:32:56;95295.28;;;21.79
30001;BMP280;16845;48.670;9.000;2023-07-31T11:35:24;95295.28;;;21.79
30001;BMP280;16845;48.670;9.000;2023-07-31T11:37:51;95296.13;;;21.80
30001;BMP280;16845;48.670;9.000;2023-07-31T11:40:18;95294.09;;;21.51
30001;BMP280;16845;48.670;9.000;2023-07-31T11:42:48;95298.28;;;21.63
30001;BMP280;16845;48.670;9.000;2023-07-31T11:45:15;95292.97;;;21.66
30001;BMP280;16845;48.670;9.000;2023-07-31T11:47:42;95285.28;;;21.55
30001;BMP280;16845;48.670;9.000;2023-07-31T11:50:10;95290.16;;;21.58
30001;BMP280;16845;48.670;9.000;2023-07-31T11:52:40;95284.53;;;21.65
30001;BMP280;16845;48.670;9.000;2023-07-31T11:55:08;95276.97;;;21.96
30001;BMP280;16845;48.670;9.000;2023-07-31T11:57:36;95265.28;;;22.25
30001;BMP280;16845;48.670;9.000;2023-07-31T12:00:04;95276.88;;;22.62
30001;BMP280;16845;48.670;9.000;2023-07-31T12:02:30;95257.13;;;23.87
30001;BMP280;16845;48.670;9.000;2023-07-31T12:04:57;95243.69;;;23.74
30001;BMP280;16845;48.670;9.000;2023-07-31T12:07:24;95253.03;;;23.55
30001;BMP280;16845;48.670;9.000;2023-07-31T12:09:53;95245.91;;;23.28
30001;BMP280;16845;48.670;9.000;2023-07-31T12:12:21;95247.41;;;22.79
30001;BMP280;16845;48.670;9.000;2023-07-31T12:14:48;95259.81;;;22.52
30001;BMP280;16845;48.670;9.000;2023-07-31T12:17:14;95252.31;;;22.28
30001;BMP280;16845;48.670;9.000;2023-07-31T12:19:41;95255.47;;;22.10
30001;BMP280;16845;48.670;9.000;2023-07-31T12:22:11;95250.03;;;21.92
30001;BMP280;16845;48.670;9.000;2023-07-31T12:24:39;95246.31;;;21.74
30001;BMP280;16845;48.670;9.000;2023-07-31T12:27:09;95242.56;;;21.57
30001;BMP280;16845;48.670;9.000;2023-07-31T12:29:36;95245.38;;;21.54
30001;BMP280;16845;48.670;9.000;2023-07-31T12:32:19;95235.16;;;21.43
30001;BMP280;16845;48.670;9.000;2023-07-31T12:34:46;95235.41;;;21.62
30001;BMP280;16845;48.670;9.000;2023-07-31T12:37:12;95239.81;;;22.03
30001;BMP280;16845;48.670;9.000;2023-07-31T12:39:39;95230.84;;;22.62
30001;BMP280;16845;48.670;9.000;2023-07-31T12:42:06;95229.59;;;23.29
30001;BMP280;16845;48.670;9.000;2023-07-31T12:44:34;95220.22;;;23.69
30001;BMP280;16845;48.670;9.000;2023-07-31T12:47:00;95208.72;;;24.71
30001;BMP280;16845;48.670;9.000;2023-07-31T12:49:27;95201.31;;;24.58
30001;BMP280;16845;48.670;9.000;2023-07-31T12:51:53;95197.25;;;24.56
30001;BMP280;16845;48.670;9.000;2023-07-31T12:54:20;95189.47;;;23.69
30001;BMP280;16845;48.670;9.000;2023-07-31T12:56:46;95186.13;;;24.27
30001;BMP280;16845;48.670;9.000;2023-07-31T12:59:13;95178.28;;;25.14
30001;BMP280;16845;48.670;9.000;2023-07-31T13:01:41;95174.00;;;26.59
30001;BMP280;16845;48.670;9.000;2023-07-31T13:04:07;95172.44;;;26.66
30001;BMP280;16845;48.670;9.000;2023-07-31T13:06:34;95166.31;;;26.32
30001;BMP280;16845;48.670;9.000;2023-07-31T13:09:00;95170.97;;;25.65
30001;BMP280;16845;48.670;9.000;2023-07-31T13:11:27;95168.59;;;24.98
30001;BMP280;16845;48.670;9.000;2023-07-31T13:13:53;95155.81;;;24.60
30001;BMP280;16845;48.670;9.000;2023-07-31T13:16:20;95163.22;;;24.35
30001;BMP280;16845;48.670;9.000;2023-07-31T13:18:48;95166.97;;;23.63
30001;BMP280;16845;48.670;9.000;2023-07-31T13:21:14;95174.16;;;23.39
30001;BMP280;16845;48.670;9.000;2023-07-31T13:23:41;95174.28;;;22.97
30001;BMP280;16845;48.670;9.000;2023-07-31T13:26:07;95171.16;;;22.52
30001;BMP280;16845;48.670;9.000;2023-07-31T13:28:34;95173.72;;;22.52
30001;BMP280;16845;48.670;9.000;2023-07-31T13:31:00;95162.38;;;22.86
30001;BMP280;16845;48.670;9.000;2023-07-31T13:33:27;95152.53;;;22.61
30001;BMP280;16845;48.670;9.000;2023-07-31T13:36:04;95159.56;;;22.89
30001;BMP280;16845;48.670;9.000;2023-07-31T13:38:31;95163.44;;;22.84
30001;BMP280;16845;48.670;9.000;2023-07-31T13:40:58;95164.00;;;22.87
30001;BMP280;16845;48.670;9.000;2023-07-31T13:43:24;95161.13;;;22.81
30001;BMP280;16845;48.670;9.000;2023-07-31T13:45:51;95151.75;;;23.11
30001;BMP280;16845;48.670;9.000;2023-07-31T13:48:17;95162.94;;;22.90
30001;BMP280;16845;48.670;9.000;2023-07-31T13:50:44;95157.84;;;23.40
30001;BMP280;16845;48.670;9.000;2023-07-31T13:53:12;95149.97;;;23.62
30001;BMP280;16845;48.670;9.000;2023-07-31T13:55:38;95147.16;;;23.65
30001;BMP280;16845;48.670;9.000;2023-07-31T13:58:05;95149.31;;;23.70
30001;BMP280;16845;48.670;9.000;2023-07-31T14:00:31;95142.59;;;23.78
30001;BMP280;16845;48.670;9.000;2023-07-31T14:02:58;95131.44;;;23.49
30001;BMP280;16845;48.670;9.000;2023-07-31T14:05:24;95139.56;;;23.54
30001;BMP280;16845;48.670;9.000;2023-07-31T14:07:51;95146.78;;;22.89
30001;BMP280;16845;48.670;9.000;2023-07-31T14:10:19;95143.94;;;22.92
30001;BMP280;16845;48.670;9.000;2023-07-31T14:12:46;95148.31;;;22.40